createdAt,value
2022-08-27T00:01:22.786Z,7.22
2022-08-27T00:03:50.501Z,9.13
2022-08-27T00:06:20.221Z,9.48
2022-08-27T00:08:48.972Z,8.68
2022-08-27T00:11:19.266Z,9.33
2022-08-27T00:13:47.451Z,8.27
2022-08-27T00:16:17.704Z,8.13
2022-08-27T00:18:47.926Z,9.40
2022-08-27T00:21:16.371Z,10.85
2022-08-27T00:23:43.940Z,10.87
2022-08-27T00:26:12.328Z,9.00
2022-08-27T00:28:42.090Z,9.48
2022-08-27T00:31:12.233Z,11.27
2022-08-27T00:33:40.470Z,9.40
2022-08-27T00:36:08.967Z,9.03
2022-08-27T00:38:38.420Z,9.50
2022-08-27T00:41:07.520Z,8.48
2022-08-27T00:43:54.614Z,8.20
2022-08-27T00:46:26.844Z,10.55
2022-08-27T00:48:57.962Z,10.10
2022-08-27T00:51:27.170Z,10.95
2022-08-27T00:53:55.782Z,10.20
2022-08-27T00:56:26.642Z,9.70
2022-08-27T00:58:57.316Z,11.57
2022-08-27T01:01:28.151Z,9.43
2022-08-27T01:04:05.742Z,10.07
2022-08-27T01:06:37.348Z,9.55
2022-08-27T01:09:08.715Z,10.63
2022-08-27T01:11:37.967Z,9.30
2022-08-27T01:14:07.386Z,10.97
2022-08-27T01:16:40.007Z,8.55
2022-08-27T01:19:15.212Z,10.75
2022-08-27T01:21:49.901Z,10.57
2022-08-27T01:24:37.714Z,9.75
2022-08-27T01:27:13.534Z,8.53
2022-08-27T01:29:43.306Z,9.23
2022-08-27T01:32:13.582Z,10.05
2022-08-27T01:34:41.326Z,9.27
2022-08-27T01:37:10.427Z,9.30
2022-08-27T01:39:41.086Z,9.30
2022-08-27T01:42:11.190Z,9.13
2022-08-27T01:44:48.437Z,9.27
2022-08-27T01:47:16.799Z,10.02
2022-08-27T01:49:45.565Z,10.55
2022-08-27T01:52:14.272Z,10.63
2022-08-27T01:54:43.148Z,11.52
2022-08-27T01:57:10.707Z,10.82
2022-08-27T01:59:39.397Z,12.10
2022-08-27T02:02:09.096Z,11.20
2022-08-27T02:04:36.635Z,10.53
2022-08-27T02:07:04.836Z,9.38
2022-08-27T02:09:33.140Z,9.23
2022-08-27T02:12:02.420Z,8.48
2022-08-27T02:14:30.071Z,9.32
2022-08-27T02:16:57.672Z,9.00
2022-08-27T02:19:25.371Z,9.38
2022-08-27T02:21:53.075Z,10.60
2022-08-27T02:24:20.788Z,10.57
2022-08-27T02:26:48.286Z,10.30
2022-08-27T02:29:17.099Z,8.40
2022-08-27T02:31:44.652Z,10.25
2022-08-27T02:34:12.190Z,10.93
2022-08-27T02:36:39.734Z,9.85
2022-08-27T02:39:07.758Z,10.88
2022-08-27T02:41:36.318Z,10.57
2022-08-27T02:44:04.616Z,11.57
2022-08-27T02:46:39.588Z,11.70
2022-08-27T02:49:07.718Z,12.20
2022-08-27T02:51:35.211Z,10.32
2022-08-27T02:54:03.078Z,12.27
2022-08-27T02:56:30.904Z,11.27
2022-08-27T02:58:59.049Z,11.70
2022-08-27T03:01:26.882Z,11.55
2022-08-27T03:03:55.751Z,11.50
2022-08-27T03:06:23.216Z,11.77
2022-08-27T03:08:52.438Z,13.05
2022-08-27T03:11:22.362Z,11.30
2022-08-27T03:13:49.942Z,11.02
2022-08-27T03:16:17.454Z,10.52
2022-08-27T03:18:44.992Z,9.93
2022-08-27T03:21:19.294Z,10.65
2022-08-27T03:23:47.012Z,10.32
2022-08-27T03:26:14.534Z,10.27
2022-08-27T03:28:42.373Z,9.77
2022-08-27T03:31:15.379Z,10.80
2022-08-27T03:33:43.438Z,10.32
2022-08-27T03:36:11.131Z,10.18
2022-08-27T03:38:40.072Z,9.13
2022-08-27T03:41:07.722Z,9.70
2022-08-27T03:43:35.812Z,9.63
2022-08-27T03:46:03.760Z,10.93
2022-08-27T03:48:32.408Z,8.00
2022-08-27T03:51:00.165Z,9.27
2022-08-27T03:53:28.236Z,9.63
2022-08-27T03:55:57.085Z,9.77
2022-08-27T03:58:24.619Z,9.65
2022-08-27T04:00:52.103Z,8.88
2022-08-27T04:03:19.582Z,9.48
2022-08-27T04:05:47.050Z,9.90
2022-08-27T04:08:14.516Z,11.67
2022-08-27T04:10:42.891Z,10.63
2022-08-27T04:13:11.865Z,11.23
2022-08-27T04:15:44.390Z,11.98
2022-08-27T04:18:13.628Z,13.13
2022-08-27T04:20:41.328Z,13.37
2022-08-27T04:23:09.306Z,13.75
2022-08-27T04:25:39.817Z,15.18
2022-08-27T04:28:07.829Z,14.82
2022-08-27T04:30:39.502Z,16.73
2022-08-27T04:33:07.036Z,15.10
2022-08-27T04:35:34.544Z,12.88
2022-08-27T04:38:02.222Z,14.07
2022-08-27T04:40:49.668Z,13.57
2022-08-27T04:43:17.762Z,12.93
2022-08-27T04:45:48.550Z,14.87
2022-08-27T04:48:18.259Z,16.00
2022-08-27T04:50:47.280Z,16.15
2022-08-27T04:53:16.507Z,16.63
2022-08-27T04:55:46.643Z,13.88
2022-08-27T04:58:14.558Z,13.63
2022-08-27T05:00:43.480Z,10.85
2022-08-27T05:03:12.916Z,14.63
2022-08-27T05:05:41.595Z,14.75
2022-08-27T05:08:12.996Z,12.48
2022-08-27T05:10:42.369Z,14.63
2022-08-27T05:13:10.398Z,16.08
2022-08-27T05:15:38.049Z,15.57
2022-08-27T05:18:07.673Z,19.15
2022-08-27T05:20:44.236Z,17.85
2022-08-27T05:23:12.276Z,15.50
2022-08-27T05:25:41.461Z,15.80
2022-08-27T05:28:09.539Z,17.83
2022-08-27T05:30:38.043Z,18.20
2022-08-27T05:33:05.940Z,18.85
2022-08-27T05:35:33.578Z,18.63
2022-08-27T05:38:02.398Z,17.60
2022-08-27T05:40:30.058Z,14.80
2022-08-27T05:42:57.610Z,17.92
2022-08-27T05:45:25.075Z,18.60
2022-08-27T05:47:52.574Z,16.57
2022-08-27T05:50:23.540Z,16.33
2022-08-27T05:52:51.591Z,17.83
2022-08-27T05:55:20.651Z,16.42
2022-08-27T05:57:48.123Z,23.33
2022-08-27T06:00:33.496Z,20.03
2022-08-27T06:03:01.020Z,19.67
2022-08-27T06:05:28.652Z,22.15
2022-08-27T06:07:56.188Z,20.27
2022-08-27T06:10:24.990Z,24.48
2022-08-27T06:12:56.369Z,17.10
2022-08-27T06:15:24.529Z,18.35
2022-08-27T06:17:53.011Z,17.05
2022-08-27T06:20:20.726Z,20.95
2022-08-27T06:22:48.191Z,17.98
2022-08-27T06:25:15.683Z,17.17
2022-08-27T06:27:44.494Z,16.73
2022-08-27T06:30:16.979Z,16.88
2022-08-27T06:32:45.309Z,15.05
2022-08-27T06:35:12.784Z,13.05
2022-08-27T06:37:40.265Z,12.30
2022-08-27T06:40:09.464Z,11.82
2022-08-27T06:42:37.110Z,11.90
2022-08-27T06:45:07.257Z,10.07
2022-08-27T06:47:34.743Z,10.75
2022-08-27T06:50:02.220Z,9.27
2022-08-27T06:52:29.760Z,8.93
2022-08-27T06:54:57.904Z,9.57
2022-08-27T06:57:25.380Z,6.93
2022-08-27T06:59:52.901Z,8.57
2022-08-27T07:02:21.715Z,8.13
2022-08-27T07:04:50.362Z,10.32
2022-08-27T07:07:27.206Z,8.95
2022-08-27T07:10:01.982Z,11.45
2022-08-27T07:12:31.821Z,9.23
2022-08-27T07:14:59.305Z,8.30
2022-08-27T07:17:28.385Z,9.43
2022-08-27T07:19:56.507Z,8.50
2022-08-27T07:22:23.996Z,8.98
2022-08-27T07:24:53.486Z,7.07
2022-08-27T07:27:21.755Z,8.10
2022-08-27T07:29:49.233Z,9.02
2022-08-27T07:32:16.747Z,7.30
2022-08-27T07:34:45.542Z,8.43
2022-08-27T07:37:14.848Z,7.90
2022-08-27T07:39:42.326Z,7.83
2022-08-27T07:42:27.075Z,11.38
2022-08-27T07:44:54.561Z,12.98
2022-08-27T07:47:22.071Z,13.77
2022-08-27T07:49:53.427Z,11.93
2022-08-27T07:52:23.616Z,12.30
2022-08-27T07:54:54.265Z,13.45
2022-08-27T07:57:21.740Z,11.73
2022-08-27T07:59:49.222Z,12.93
2022-08-27T08:02:16.704Z,14.02
2022-08-27T08:04:44.200Z,13.40
2022-08-27T08:07:13.649Z,14.60
2022-08-27T08:09:41.116Z,16.25
2022-08-27T08:12:08.656Z,14.10
2022-08-27T08:14:36.802Z,12.45
2022-08-27T08:17:10.174Z,14.03
2022-08-27T08:19:37.950Z,13.43
2022-08-27T08:22:06.046Z,11.88
2022-08-27T08:24:35.228Z,12.32
2022-08-27T08:27:06.923Z,13.88
2022-08-27T08:29:35.297Z,13.27
2022-08-27T08:32:02.787Z,12.45
2022-08-27T08:34:30.368Z,10.20
2022-08-27T08:36:57.837Z,13.07
2022-08-27T08:39:25.427Z,12.30
2022-08-27T08:41:56.730Z,11.87
2022-08-27T08:44:31.880Z,11.25
2022-08-27T08:47:04.410Z,10.80
2022-08-27T08:49:42.695Z,9.75
2022-08-27T08:52:30.601Z,10.25
2022-08-27T08:55:06.758Z,9.07
2022-08-27T08:57:40.179Z,10.63
2022-08-27T09:00:12.276Z,11.30
2022-08-27T09:02:40.248Z,11.20
2022-08-27T09:05:11.313Z,11.65
2022-08-27T09:07:45.576Z,12.33
2022-08-27T09:10:23.591Z,10.85
2022-08-27T09:12:53.757Z,10.35
2022-08-27T09:15:24.496Z,10.52
2022-08-27T09:17:51.968Z,12.60
2022-08-27T09:20:25.639Z,10.87
2022-08-27T09:23:01.468Z,10.27
2022-08-27T09:25:32.707Z,9.43
2022-08-27T09:28:27.705Z,11.18
2022-08-27T09:30:55.882Z,9.70
2022-08-27T09:33:23.564Z,6.93
2022-08-27T09:35:52.069Z,8.63
2022-08-27T09:38:27.667Z,9.50
2022-08-27T09:41:00.713Z,10.90
2022-08-27T09:43:31.852Z,10.98
2022-08-27T09:46:01.505Z,9.87
2022-08-27T09:48:31.719Z,11.23
2022-08-27T09:51:02.494Z,10.70
2022-08-27T09:53:34.814Z,9.90
2022-08-27T09:56:04.792Z,10.13
2022-08-27T09:58:47.136Z,10.53
2022-08-27T10:01:19.640Z,11.38
2022-08-27T10:03:47.214Z,10.35
2022-08-27T10:06:14.994Z,10.90
2022-08-27T10:08:46.931Z,10.48
2022-08-27T10:11:20.919Z,12.23
2022-08-27T10:13:56.512Z,10.00
2022-08-27T10:16:44.343Z,11.93
2022-08-27T10:19:22.273Z,13.52
2022-08-27T10:22:01.176Z,10.75
2022-08-27T10:24:37.353Z,9.37
2022-08-27T10:27:14.398Z,11.13
2022-08-27T10:29:50.347Z,13.43
2022-08-27T10:32:36.660Z,15.18
2022-08-27T10:35:10.547Z,15.70
2022-08-27T10:37:52.083Z,13.37
2022-08-27T10:40:26.031Z,20.00
2022-08-27T10:43:23.905Z,23.05
2022-08-27T10:46:00.825Z,15.70
2022-08-27T10:48:35.332Z,9.88
2022-08-27T10:51:11.127Z,10.20
2022-08-27T10:53:45.073Z,10.35
2022-08-27T10:56:18.309Z,11.80
2022-08-27T10:58:58.348Z,12.25
2022-08-27T11:01:38.098Z,9.82
2022-08-27T11:04:09.514Z,11.20
2022-08-27T11:06:40.967Z,14.07
2022-08-27T11:09:14.225Z,13.23
2022-08-27T11:14:38.335Z,11.82
2022-08-27T11:17:12.487Z,12.57
2022-08-27T11:19:48.729Z,10.15
2022-08-27T11:22:26.118Z,10.82
2022-08-27T11:24:58.251Z,8.95
2022-08-27T11:27:31.155Z,9.15
2022-08-27T11:30:04.079Z,8.27
2022-08-27T11:32:43.313Z,7.68
2022-08-27T11:35:17.803Z,8.00
2022-08-27T11:38:02.143Z,8.75
2022-08-27T11:40:48.187Z,7.95
2022-08-27T11:43:19.371Z,7.03
2022-08-27T11:45:57.413Z,7.60
2022-08-27T11:48:29.435Z,7.53
2022-08-27T11:51:00.086Z,8.63
2022-08-27T11:53:30.931Z,7.90
2022-08-27T11:55:59.087Z,7.13
2022-08-27T11:58:32.276Z,8.38
2022-08-27T12:01:04.736Z,7.57
2022-08-27T12:03:36.870Z,6.97
2022-08-27T12:06:22.349Z,7.00
2022-08-27T12:08:49.808Z,5.70
2022-08-27T12:11:29.417Z,7.00
2022-08-27T12:14:05.434Z,7.13
2022-08-27T12:16:40.485Z,6.93
2022-08-27T12:19:23.619Z,7.90
2022-08-27T12:22:06.087Z,8.17
2022-08-27T12:24:43.422Z,8.32
2022-08-27T12:27:25.870Z,7.13
2022-08-27T12:29:57.025Z,7.60
2022-08-27T12:32:28.456Z,6.80
2022-08-27T12:35:03.509Z,6.63
2022-08-27T12:37:36.849Z,6.43
2022-08-27T12:40:13.438Z,6.22
2022-08-27T12:42:41.325Z,5.38
2022-08-27T12:45:09.365Z,6.53
2022-08-27T12:47:42.571Z,5.17
2022-08-27T12:50:26.208Z,7.93
2022-08-27T12:53:27.089Z,4.93
2022-08-27T12:56:10.165Z,5.07
2022-08-27T12:58:50.308Z,4.40
2022-08-27T13:01:37.454Z,10.37
2022-08-27T13:04:21.416Z,5.28
2022-08-27T13:06:50.518Z,5.47
2022-08-27T13:09:27.484Z,6.47
2022-08-27T13:11:56.714Z,6.97
2022-08-27T13:14:26.757Z,5.07
2022-08-27T13:16:57.217Z,6.43
2022-08-27T13:19:27.985Z,6.97
2022-08-27T13:21:57.098Z,7.53
2022-08-27T13:24:30.995Z,7.57
2022-08-27T13:26:58.908Z,7.87
2022-08-27T13:29:27.604Z,8.02
2022-08-27T13:31:55.734Z,11.63
2022-08-27T13:34:26.289Z,8.73
2022-08-27T13:37:02.489Z,10.00
2022-08-27T13:39:29.985Z,8.23
2022-08-27T13:42:00.073Z,9.77
2022-08-27T13:44:32.927Z,9.38
2022-08-27T13:47:03.142Z,10.77
2022-08-27T13:49:34.489Z,12.63
2022-08-27T13:52:24.585Z,10.97
2022-08-27T13:54:59.469Z,12.45
2022-08-27T13:57:41.146Z,12.55
2022-08-27T14:00:11.966Z,14.55
2022-08-27T14:02:39.559Z,14.52
2022-08-27T14:05:12.380Z,14.33
2022-08-27T14:07:47.320Z,16.77
2022-08-27T14:10:30.645Z,17.88
2022-08-27T14:13:01.022Z,18.00
2022-08-27T14:15:33.532Z,19.50
2022-08-27T14:18:01.996Z,20.63
2022-08-27T14:20:29.758Z,21.98
2022-08-27T14:22:59.527Z,22.50
2022-08-27T14:25:27.643Z,24.15
2022-08-27T14:27:57.045Z,22.67
2022-08-27T14:30:30.042Z,21.33
2022-08-27T14:32:59.331Z,20.40
2022-08-27T14:35:27.283Z,21.25
2022-08-27T14:37:55.593Z,19.75
2022-08-27T14:40:24.521Z,21.38
2022-08-27T14:42:52.564Z,19.03
2022-08-27T14:45:20.730Z,20.42
2022-08-27T14:47:48.321Z,22.58
2022-08-27T14:50:16.207Z,20.58
2022-08-27T14:52:43.707Z,23.02
2022-08-27T14:55:12.358Z,18.53
2022-08-27T14:57:41.252Z,18.60
2022-08-27T15:00:11.158Z,19.02
2022-08-27T15:02:44.992Z,18.52
2022-08-27T15:05:16.213Z,16.27
2022-08-27T15:07:47.050Z,17.83
2022-08-27T15:10:15.407Z,15.10
2022-08-27T15:12:44.413Z,15.65
2022-08-27T15:15:12.981Z,15.02
2022-08-27T15:17:40.528Z,12.15
2022-08-27T15:20:19.839Z,12.63
2022-08-27T15:22:49.040Z,13.07
2022-08-27T15:25:17.700Z,11.18
2022-08-27T15:27:46.585Z,13.43
2022-08-27T15:30:16.368Z,10.13
2022-08-27T15:32:45.754Z,9.73
2022-08-27T15:35:15.578Z,8.07
2022-08-27T15:37:43.818Z,8.63
2022-08-27T15:40:12.835Z,7.65
2022-08-27T15:42:40.599Z,5.50
2022-08-27T15:45:12.869Z,4.93
2022-08-27T15:47:40.436Z,5.05
2022-08-27T15:50:08.987Z,4.75
2022-08-27T15:52:40.901Z,3.90
2022-08-27T15:55:16.077Z,4.03
2022-08-27T15:57:43.540Z,4.10
2022-08-27T16:00:13.670Z,4.13
2022-08-27T16:02:42.399Z,3.63
2022-08-27T16:05:10.211Z,4.43
2022-08-27T16:07:37.738Z,3.30
2022-08-27T16:10:06.940Z,3.47
2022-08-27T16:12:34.689Z,3.28
2022-08-27T16:15:02.390Z,3.40
2022-08-27T16:17:31.337Z,3.25
2022-08-27T16:19:58.947Z,2.83
2022-08-27T16:22:26.484Z,3.60
2022-08-27T16:24:53.969Z,3.03
2022-08-27T16:27:21.422Z,3.65
2022-08-27T16:29:48.898Z,3.28
2022-08-27T16:32:18.963Z,3.30
2022-08-27T16:34:55.356Z,2.83
2022-08-27T16:37:24.020Z,3.28
2022-08-27T16:39:51.944Z,3.20
2022-08-27T16:42:19.560Z,3.17
2022-08-27T16:44:47.061Z,3.17
2022-08-27T16:47:14.619Z,3.63
2022-08-27T16:49:59.967Z,3.45
2022-08-27T16:52:30.001Z,3.55
2022-08-27T16:54:57.563Z,3.10
2022-08-27T16:57:25.018Z,3.88
2022-08-27T16:59:54.928Z,3.10
2022-08-27T17:02:30.381Z,4.00
2022-08-27T17:05:04.113Z,3.10
2022-08-27T17:07:48.925Z,3.03
2022-08-27T17:10:17.175Z,2.83
2022-08-27T17:12:46.120Z,2.87
2022-08-27T17:15:14.691Z,3.25
2022-08-27T17:17:42.824Z,3.38
2022-08-27T17:20:11.107Z,3.47
2022-08-27T17:22:38.764Z,3.72
2022-08-27T17:25:09.043Z,3.40
2022-08-27T17:27:36.583Z,3.50
2022-08-27T17:30:04.990Z,3.30
2022-08-27T17:32:35.897Z,3.20
2022-08-27T17:35:06.242Z,3.20
2022-08-27T17:37:34.303Z,2.93
2022-08-27T17:40:02.101Z,3.13
2022-08-27T17:42:31.943Z,3.08
2022-08-27T17:45:00.230Z,2.85
2022-08-27T17:47:27.792Z,3.05
2022-08-27T17:49:55.308Z,3.03
2022-08-27T17:52:23.672Z,2.45
2022-08-27T17:54:54.069Z,2.70
2022-08-27T17:57:23.423Z,2.92
2022-08-27T17:59:53.293Z,2.70
2022-08-27T18:02:23.651Z,2.60
2022-08-27T18:04:51.650Z,2.45
2022-08-27T18:07:19.306Z,2.65
2022-08-27T18:09:48.058Z,2.88
2022-08-27T18:12:20.124Z,2.38
2022-08-27T18:14:52.842Z,2.70
2022-08-27T18:17:21.748Z,2.25
2022-08-27T18:19:50.709Z,2.45
2022-08-27T18:22:18.886Z,2.30
2022-08-27T18:24:46.374Z,2.40
2022-08-27T18:27:14.050Z,2.40
2022-08-27T18:29:42.225Z,2.70
2022-08-27T18:32:09.776Z,2.80
2022-08-27T18:34:40.748Z,2.50
2022-08-27T18:37:08.499Z,3.00
2022-08-27T18:39:39.490Z,2.40
2022-08-27T18:42:07.811Z,2.50
2022-08-27T18:44:37.799Z,3.13
2022-08-27T18:47:05.638Z,2.28
2022-08-27T18:49:33.300Z,3.45
2022-08-27T18:52:02.287Z,2.30
2022-08-27T18:54:29.825Z,2.40
2022-08-27T18:56:57.320Z,2.15
2022-08-27T18:59:27.141Z,2.38
2022-08-27T19:01:56.227Z,2.60
2022-08-27T19:04:24.476Z,2.40
2022-08-27T19:06:51.969Z,2.25
2022-08-27T19:09:21.009Z,2.17
2022-08-27T19:11:48.651Z,2.60
2022-08-27T19:14:16.155Z,2.63
2022-08-27T19:16:46.378Z,2.90
2022-08-27T19:19:16.379Z,2.38
2022-08-27T19:21:48.008Z,2.88
2022-08-27T19:24:19.042Z,2.47
2022-08-27T19:26:49.010Z,2.38
2022-08-27T19:29:16.466Z,2.63
2022-08-27T19:31:44.130Z,2.47
2022-08-27T19:34:12.210Z,2.50
2022-08-27T19:36:43.054Z,2.70
2022-08-27T19:39:13.317Z,2.25
2022-08-27T19:41:41.024Z,2.47
2022-08-27T19:44:09.914Z,2.60
2022-08-27T19:46:37.783Z,2.70
2022-08-27T19:49:05.416Z,2.70
2022-08-27T19:51:32.933Z,2.88
2022-08-27T19:54:00.445Z,2.90
2022-08-27T19:56:28.747Z,2.75
2022-08-27T19:58:59.170Z,2.60
2022-08-27T20:01:32.500Z,2.60
2022-08-27T20:04:00.082Z,2.92
2022-08-27T20:06:29.151Z,2.63
2022-08-27T20:08:56.670Z,2.88
2022-08-27T20:11:24.180Z,2.50
2022-08-27T20:13:51.690Z,3.10
2022-08-27T20:16:19.392Z,2.80
2022-08-27T20:18:48.596Z,2.70
2022-08-27T20:21:16.043Z,2.33
2022-08-27T20:23:43.542Z,2.67
2022-08-27T20:26:11.167Z,3.03
2022-08-27T20:28:39.974Z,3.00
2022-08-27T20:31:08.354Z,2.83
2022-08-27T20:33:35.836Z,2.63
2022-08-27T20:36:07.823Z,2.80
2022-08-27T20:38:35.515Z,2.75
2022-08-27T20:41:03.272Z,2.80
2022-08-27T20:43:30.743Z,2.80
2022-08-27T20:45:58.544Z,3.40
2022-08-27T20:48:26.153Z,3.05
2022-08-27T20:50:56.088Z,3.13
2022-08-27T20:53:25.852Z,2.83
2022-08-27T20:55:56.364Z,2.87
2022-08-27T20:58:41.623Z,3.00
2022-08-27T21:01:10.115Z,3.00
2022-08-27T21:03:37.882Z,3.15
2022-08-27T21:06:06.584Z,3.08
2022-08-27T21:08:35.666Z,3.10
2022-08-27T21:11:08.482Z,2.90
2022-08-27T21:13:46.515Z,3.72
2022-08-27T21:16:22.658Z,2.80
2022-08-27T21:18:50.189Z,3.20
2022-08-27T21:21:17.738Z,3.17
2022-08-27T21:23:46.577Z,3.15
2022-08-27T21:26:14.567Z,3.05
2022-08-27T21:28:44.355Z,3.20
2022-08-27T21:31:12.256Z,3.42
2022-08-27T21:33:40.160Z,3.37
2022-08-27T21:36:11.738Z,3.08
2022-08-27T21:38:39.622Z,2.90
2022-08-27T21:41:08.682Z,3.83
2022-08-27T21:43:36.457Z,2.55
2022-08-27T21:46:04.226Z,2.97
2022-08-27T21:48:31.769Z,3.20
2022-08-27T21:50:59.267Z,3.40
2022-08-27T21:53:26.778Z,2.95
2022-08-27T21:55:54.907Z,3.28
2022-08-27T21:58:26.583Z,2.90
2022-08-27T22:00:54.497Z,2.97
2022-08-27T22:03:23.630Z,3.35
2022-08-27T22:05:51.687Z,3.17
2022-08-27T22:08:22.553Z,3.50
2022-08-27T22:10:53.165Z,3.77
2022-08-27T22:13:21.903Z,3.20
2022-08-27T22:15:50.923Z,3.22
2022-08-27T22:18:18.986Z,3.10
2022-08-27T22:20:50.466Z,3.08
2022-08-27T22:23:17.957Z,2.67
2022-08-27T22:25:45.508Z,4.10
2022-08-27T22:28:14.154Z,2.55
2022-08-27T22:30:42.703Z,3.00
2022-08-27T22:33:11.814Z,3.60
2022-08-27T22:35:40.071Z,3.20
2022-08-27T22:38:08.122Z,3.05
2022-08-27T22:40:37.220Z,3.20
2022-08-27T22:43:05.704Z,2.85
2022-08-27T22:45:34.409Z,3.20
2022-08-27T22:48:01.909Z,2.97
2022-08-27T22:50:30.726Z,3.25
2022-08-27T22:52:58.495Z,3.67
2022-08-27T22:55:26.204Z,3.38
2022-08-27T22:57:55.665Z,3.38
2022-08-27T23:00:27.021Z,3.70
2022-08-27T23:02:54.641Z,3.72
2022-08-27T23:05:23.034Z,3.60
2022-08-27T23:07:52.038Z,3.28
2022-08-27T23:10:22.373Z,4.03
2022-08-27T23:12:50.106Z,3.10
2022-08-27T23:15:19.091Z,3.47
2022-08-27T23:17:46.720Z,3.08
2022-08-27T23:20:14.526Z,3.58
2022-08-27T23:22:42.594Z,3.50
2022-08-27T23:25:30.112Z,4.20
2022-08-27T23:27:59.803Z,3.67
2022-08-27T23:30:27.895Z,3.70
2022-08-27T23:32:56.530Z,3.75
2022-08-27T23:35:26.071Z,3.40
2022-08-27T23:37:54.482Z,3.30
2022-08-27T23:40:24.647Z,3.50
2022-08-27T23:42:52.583Z,3.42
2022-08-27T23:45:22.600Z,3.45
2022-08-27T23:47:50.181Z,3.92
2022-08-27T23:50:18.374Z,4.10
2022-08-27T23:52:45.830Z,3.70
2022-08-27T23:55:13.617Z,4.07
2022-08-27T23:57:42.445Z,3.85
